sensor_id;sensor_type;location;lat;lon;timestamp;P1;durP1;ratioP1;P2;durP2;ratioP2
15878;SDS011;61999;51.514;14.614;2022-12-04T00:00:14;66.20;;;33.30;;
15878;SDS011;61999;51.514;14.614;2022-12-04T00:02:43;69.07;;;33.73;;
15878;SDS011;61999;51.514;14.614;2022-12-04T00:05:11;64.87;;;32.97;;
15878;SDS011;61999;51.514;14.614;2022-12-04T00:07:39;67.77;;;35.13;;
15878;SDS011;61999;51.514;14.614;2022-12-04T00:10:08;74.03;;;36.97;;
15878;SDS011;61999;51.514;14.614;2022-12-04T00:12:36;78.93;;;38.77;;
15878;SDS011;61999;51.514;14.614;2022-12-04T00:19:13;70.27;;;35.13;;
15878;SDS011;61999;51.514;14.614;2022-12-04T00:21:40;65.57;;;33.73;;
15878;SDS011;61999;51.514;14.614;2022-12-04T00:24:10;66.80;;;34.13;;
15878;SDS011;61999;51.514;14.614;2022-12-04T00:26:38;63.70;;;35.20;;
15878;SDS011;61999;51.514;14.614;2022-12-04T00:29:06;61.30;;;34.13;;
15878;SDS011;61999;51.514;14.614;2022-12-04T00:31:34;68.30;;;34.37;;
15878;SDS011;61999;51.514;14.614;2022-12-04T00:34:02;73.47;;;38.40;;
15878;SDS011;61999;51.514;14.614;2022-12-04T00:36:34;68.07;;;36.33;;
15878;SDS011;61999;51.514;14.614;2022-12-04T00:39:02;65.77;;;33.67;;
15878;SDS011;61999;51.514;14.614;2022-12-04T00:41:31;66.50;;;34.43;;
15878;SDS011;61999;51.514;14.614;2022-12-04T00:44:01;72.47;;;37.87;;
15878;SDS011;61999;51.514;14.614;2022-12-04T00:46:30;69.30;;;36.30;;
15878;SDS011;61999;51.514;14.614;2022-12-04T00:48:58;76.73;;;39.37;;
15878;SDS011;61999;51.514;14.614;2022-12-04T00:51:28;75.17;;;38.37;;
15878;SDS011;61999;51.514;14.614;2022-12-04T00:53:57;66.63;;;35.83;;
15878;SDS011;61999;51.514;14.614;2022-12-04T00:56:26;68.37;;;36.33;;
15878;SDS011;61999;51.514;14.614;2022-12-04T00:58:56;71.00;;;35.40;;
15878;SDS011;61999;51.514;14.614;2022-12-04T01:01:29;67.67;;;35.93;;
15878;SDS011;61999;51.514;14.614;2022-12-04T01:03:57;78.60;;;39.27;;
15878;SDS011;61999;51.514;14.614;2022-12-04T01:13:50;76.43;;;38.10;;
15878;SDS011;61999;51.514;14.614;2022-12-04T01:20:19;78.80;;;40.73;;
15878;SDS011;61999;51.514;14.614;2022-12-04T01:22:47;80.47;;;38.07;;
15878;SDS011;61999;51.514;14.614;2022-12-04T01:25:15;74.97;;;37.40;;
15878;SDS011;61999;51.514;14.614;2022-12-04T01:35:28;70.87;;;34.67;;
15878;SDS011;61999;51.514;14.614;2022-12-04T01:42:02;70.43;;;34.87;;
15878;SDS011;61999;51.514;14.614;2022-12-04T01:47:56;73.40;;;37.17;;
15878;SDS011;61999;51.514;14.614;2022-12-04T01:50:35;75.53;;;39.17;;
15878;SDS011;61999;51.514;14.614;2022-12-04T01:53:03;68.33;;;35.37;;
15878;SDS011;61999;51.514;14.614;2022-12-04T01:55:32;67.70;;;37.00;;
15878;SDS011;61999;51.514;14.614;2022-12-04T01:58:00;79.40;;;39.43;;
15878;SDS011;61999;51.514;14.614;2022-12-04T02:00:29;70.53;;;36.33;;
15878;SDS011;61999;51.514;14.614;2022-12-04T02:02:57;76.03;;;39.87;;
15878;SDS011;61999;51.514;14.614;2022-12-04T02:05:25;75.73;;;37.60;;
15878;SDS011;61999;51.514;14.614;2022-12-04T02:07:56;69.20;;;37.63;;
15878;SDS011;61999;51.514;14.614;2022-12-04T02:10:33;76.63;;;40.10;;
15878;SDS011;61999;51.514;14.614;2022-12-04T02:13:16;70.67;;;36.97;;
15878;SDS011;61999;51.514;14.614;2022-12-04T02:15:56;76.13;;;39.20;;
15878;SDS011;61999;51.514;14.614;2022-12-04T02:18:37;76.50;;;37.13;;
15878;SDS011;61999;51.514;14.614;2022-12-04T02:21:20;71.27;;;35.37;;
15878;SDS011;61999;51.514;14.614;2022-12-04T02:27:02;77.20;;;40.57;;
15878;SDS011;61999;51.514;14.614;2022-12-04T02:29:45;72.63;;;36.00;;
15878;SDS011;61999;51.514;14.614;2022-12-04T02:32:25;80.60;;;37.73;;
15878;SDS011;61999;51.514;14.614;2022-12-04T02:35:05;81.97;;;39.47;;
15878;SDS011;61999;51.514;14.614;2022-12-04T02:37:41;85.30;;;39.53;;
15878;SDS011;61999;51.514;14.614;2022-12-04T02:40:15;79.93;;;40.53;;
15878;SDS011;61999;51.514;14.614;2022-12-04T02:42:52;75.63;;;38.93;;
15878;SDS011;61999;51.514;14.614;2022-12-04T02:45:31;68.97;;;36.07;;
15878;SDS011;61999;51.514;14.614;2022-12-04T02:48:06;83.63;;;40.30;;
15878;SDS011;61999;51.514;14.614;2022-12-04T02:50:37;80.00;;;39.17;;
15878;SDS011;61999;51.514;14.614;2022-12-04T02:53:07;78.63;;;39.17;;
15878;SDS011;61999;51.514;14.614;2022-12-04T02:55:43;79.87;;;39.43;;
15878;SDS011;61999;51.514;14.614;2022-12-04T02:58:19;73.13;;;38.77;;
15878;SDS011;61999;51.514;14.614;2022-12-04T03:00:54;78.00;;;37.17;;
15878;SDS011;61999;51.514;14.614;2022-12-04T03:03:29;78.37;;;38.80;;
15878;SDS011;61999;51.514;14.614;2022-12-04T03:06:00;83.90;;;40.50;;
15878;SDS011;61999;51.514;14.614;2022-12-04T03:08:36;82.73;;;39.43;;
15878;SDS011;61999;51.514;14.614;2022-12-04T03:11:12;78.33;;;39.43;;
15878;SDS011;61999;51.514;14.614;2022-12-04T03:13:40;76.47;;;40.43;;
15878;SDS011;61999;51.514;14.614;2022-12-04T03:16:17;80.67;;;41.13;;
15878;SDS011;61999;51.514;14.614;2022-12-04T03:18:52;89.07;;;42.70;;
15878;SDS011;61999;51.514;14.614;2022-12-04T03:21:25;80.57;;;40.40;;
15878;SDS011;61999;51.514;14.614;2022-12-04T03:23:58;75.70;;;38.37;;
15878;SDS011;61999;51.514;14.614;2022-12-04T03:26:36;85.60;;;42.53;;
15878;SDS011;61999;51.514;14.614;2022-12-04T03:29:13;85.77;;;41.17;;
15878;SDS011;61999;51.514;14.614;2022-12-04T03:31:50;79.03;;;39.60;;
15878;SDS011;61999;51.514;14.614;2022-12-04T03:34:34;84.03;;;43.23;;
15878;SDS011;61999;51.514;14.614;2022-12-04T03:37:17;87.10;;;42.53;;
15878;SDS011;61999;51.514;14.614;2022-12-04T03:39:54;83.43;;;44.93;;
15878;SDS011;61999;51.514;14.614;2022-12-04T03:42:30;85.77;;;45.67;;
15878;SDS011;61999;51.514;14.614;2022-12-04T03:45:06;86.37;;;44.27;;
15878;SDS011;61999;51.514;14.614;2022-12-04T03:47:48;84.10;;;42.43;;
15878;SDS011;61999;51.514;14.614;2022-12-04T03:50:26;82.17;;;40.63;;
15878;SDS011;61999;51.514;14.614;2022-12-04T03:53:05;79.53;;;40.47;;
15878;SDS011;61999;51.514;14.614;2022-12-04T03:55:40;84.63;;;41.37;;
15878;SDS011;61999;51.514;14.614;2022-12-04T03:58:36;77.90;;;38.83;;
15878;SDS011;61999;51.514;14.614;2022-12-04T04:01:16;79.63;;;40.87;;
15878;SDS011;61999;51.514;14.614;2022-12-04T04:04:14;96.67;;;47.80;;
15878;SDS011;61999;51.514;14.614;2022-12-04T04:06:56;96.77;;;46.67;;
15878;SDS011;61999;51.514;14.614;2022-12-04T04:09:32;85.80;;;41.93;;
15878;SDS011;61999;51.514;14.614;2022-12-04T04:12:09;84.87;;;42.43;;
15878;SDS011;61999;51.514;14.614;2022-12-04T04:14:44;85.80;;;43.63;;
15878;SDS011;61999;51.514;14.614;2022-12-04T04:17:35;85.90;;;42.13;;
15878;SDS011;61999;51.514;14.614;2022-12-04T04:20:32;82.43;;;42.73;;
15878;SDS011;61999;51.514;14.614;2022-12-04T04:23:22;85.93;;;43.63;;
15878;SDS011;61999;51.514;14.614;2022-12-04T04:26:14;88.53;;;42.97;;
15878;SDS011;61999;51.514;14.614;2022-12-04T04:28:44;80.33;;;40.70;;
15878;SDS011;61999;51.514;14.614;2022-12-04T04:31:15;81.83;;;39.90;;
15878;SDS011;61999;51.514;14.614;2022-12-04T04:33:56;83.67;;;39.43;;
15878;SDS011;61999;51.514;14.614;2022-12-04T04:36:38;88.37;;;42.63;;
15878;SDS011;61999;51.514;14.614;2022-12-04T04:39:22;93.40;;;45.17;;
15878;SDS011;61999;51.514;14.614;2022-12-04T04:41:58;81.83;;;41.47;;
15878;SDS011;61999;51.514;14.614;2022-12-04T04:44:38;83.43;;;41.33;;
15878;SDS011;61999;51.514;14.614;2022-12-04T04:47:15;94.47;;;45.30;;
15878;SDS011;61999;51.514;14.614;2022-12-04T04:49:53;84.70;;;42.73;;
15878;SDS011;61999;51.514;14.614;2022-12-04T04:52:29;91.33;;;41.83;;
15878;SDS011;61999;51.514;14.614;2022-12-04T04:54:58;86.80;;;42.17;;
15878;SDS011;61999;51.514;14.614;2022-12-04T04:57:30;88.20;;;44.00;;
15878;SDS011;61999;51.514;14.614;2022-12-04T05:00:01;71.63;;;39.40;;
15878;SDS011;61999;51.514;14.614;2022-12-04T05:02:33;77.90;;;39.47;;
15878;SDS011;61999;51.514;14.614;2022-12-04T05:05:01;83.33;;;40.60;;
15878;SDS011;61999;51.514;14.614;2022-12-04T05:07:32;88.30;;;40.97;;
15878;SDS011;61999;51.514;14.614;2022-12-04T05:10:00;81.47;;;39.90;;
15878;SDS011;61999;51.514;14.614;2022-12-04T05:12:28;86.37;;;43.90;;
15878;SDS011;61999;51.514;14.614;2022-12-04T05:14:56;84.43;;;42.10;;
15878;SDS011;61999;51.514;14.614;2022-12-04T05:17:24;80.13;;;40.17;;
15878;SDS011;61999;51.514;14.614;2022-12-04T05:19:52;80.73;;;41.33;;
15878;SDS011;61999;51.514;14.614;2022-12-04T05:22:19;76.70;;;41.20;;
15878;SDS011;61999;51.514;14.614;2022-12-04T05:24:52;79.60;;;42.10;;
15878;SDS011;61999;51.514;14.614;2022-12-04T05:27:26;82.43;;;42.47;;
15878;SDS011;61999;51.514;14.614;2022-12-04T05:29:57;82.03;;;42.50;;
15878;SDS011;61999;51.514;14.614;2022-12-04T05:32:26;83.30;;;41.47;;
15878;SDS011;61999;51.514;14.614;2022-12-04T05:34:56;82.80;;;40.97;;
15878;SDS011;61999;51.514;14.614;2022-12-04T05:37:24;90.17;;;42.10;;
15878;SDS011;61999;51.514;14.614;2022-12-04T05:39:54;93.57;;;43.33;;
15878;SDS011;61999;51.514;14.614;2022-12-04T05:42:22;79.13;;;41.60;;
15878;SDS011;61999;51.514;14.614;2022-12-04T05:44:50;74.43;;;38.73;;
15878;SDS011;61999;51.514;14.614;2022-12-04T05:47:18;88.87;;;43.20;;
15878;SDS011;61999;51.514;14.614;2022-12-04T05:49:46;82.37;;;42.10;;
15878;SDS011;61999;51.514;14.614;2022-12-04T05:52:14;71.80;;;36.80;;
15878;SDS011;61999;51.514;14.614;2022-12-04T05:54:42;79.17;;;40.13;;
15878;SDS011;61999;51.514;14.614;2022-12-04T05:57:11;87.97;;;43.20;;
15878;SDS011;61999;51.514;14.614;2022-12-04T05:59:39;81.90;;;40.43;;
15878;SDS011;61999;51.514;14.614;2022-12-04T06:02:10;80.73;;;39.77;;
15878;SDS011;61999;51.514;14.614;2022-12-04T06:04:41;73.27;;;36.20;;
15878;SDS011;61999;51.514;14.614;2022-12-04T06:07:09;76.33;;;39.47;;
15878;SDS011;61999;51.514;14.614;2022-12-04T06:09:37;78.37;;;38.83;;
15878;SDS011;61999;51.514;14.614;2022-12-04T06:12:05;78.13;;;39.60;;
15878;SDS011;61999;51.514;14.614;2022-12-04T06:14:35;72.73;;;38.50;;
15878;SDS011;61999;51.514;14.614;2022-12-04T06:17:04;83.60;;;41.73;;
15878;SDS011;61999;51.514;14.614;2022-12-04T06:19:33;73.60;;;38.63;;
15878;SDS011;61999;51.514;14.614;2022-12-04T06:22:01;72.80;;;36.03;;
15878;SDS011;61999;51.514;14.614;2022-12-04T06:24:29;73.03;;;37.13;;
15878;SDS011;61999;51.514;14.614;2022-12-04T06:26:58;76.83;;;37.87;;
15878;SDS011;61999;51.514;14.614;2022-12-04T06:29:47;76.93;;;38.67;;
15878;SDS011;61999;51.514;14.614;2022-12-04T06:32:15;69.47;;;36.07;;
15878;SDS011;61999;51.514;14.614;2022-12-04T06:34:48;67.03;;;35.47;;
15878;SDS011;61999;51.514;14.614;2022-12-04T06:37:18;77.37;;;37.83;;
15878;SDS011;61999;51.514;14.614;2022-12-04T06:39:47;79.30;;;41.23;;
15878;SDS011;61999;51.514;14.614;2022-12-04T06:42:15;82.50;;;41.77;;
15878;SDS011;61999;51.514;14.614;2022-12-04T06:44:43;80.50;;;40.43;;
15878;SDS011;61999;51.514;14.614;2022-12-04T06:47:13;72.13;;;37.77;;
15878;SDS011;61999;51.514;14.614;2022-12-04T06:49:41;79.23;;;40.47;;
15878;SDS011;61999;51.514;14.614;2022-12-04T06:52:11;79.87;;;41.43;;
15878;SDS011;61999;51.514;14.614;2022-12-04T06:54:39;73.37;;;39.53;;
15878;SDS011;61999;51.514;14.614;2022-12-04T06:57:07;83.53;;;41.50;;
15878;SDS011;61999;51.514;14.614;2022-12-04T06:59:35;76.00;;;40.40;;
15878;SDS011;61999;51.514;14.614;2022-12-04T07:02:03;80.60;;;41.60;;
15878;SDS011;61999;51.514;14.614;2022-12-04T07:04:33;71.83;;;37.90;;
15878;SDS011;61999;51.514;14.614;2022-12-04T07:07:01;70.83;;;37.70;;
15878;SDS011;61999;51.514;14.614;2022-12-04T07:09:29;78.03;;;39.30;;
15878;SDS011;61999;51.514;14.614;2022-12-04T07:11:57;75.13;;;41.03;;
15878;SDS011;61999;51.514;14.614;2022-12-04T07:14:25;69.93;;;37.53;;
15878;SDS011;61999;51.514;14.614;2022-12-04T07:16:53;85.30;;;42.73;;
15878;SDS011;61999;51.514;14.614;2022-12-04T07:19:21;81.77;;;40.90;;
15878;SDS011;61999;51.514;14.614;2022-12-04T07:21:50;74.43;;;39.53;;
15878;SDS011;61999;51.514;14.614;2022-12-04T07:24:18;76.83;;;39.17;;
15878;SDS011;61999;51.514;14.614;2022-12-04T07:26:46;66.53;;;36.30;;
15878;SDS011;61999;51.514;14.614;2022-12-04T07:29:14;77.73;;;39.80;;
15878;SDS011;61999;51.514;14.614;2022-12-04T07:31:42;75.93;;;43.70;;
15878;SDS011;61999;51.514;14.614;2022-12-04T07:34:11;77.73;;;41.00;;
15878;SDS011;61999;51.514;14.614;2022-12-04T07:36:39;76.23;;;42.33;;
15878;SDS011;61999;51.514;14.614;2022-12-04T07:39:08;87.23;;;42.97;;
15878;SDS011;61999;51.514;14.614;2022-12-04T07:41:36;95.53;;;51.87;;
15878;SDS011;61999;51.514;14.614;2022-12-04T07:44:04;90.10;;;52.23;;
15878;SDS011;61999;51.514;14.614;2022-12-04T07:46:33;78.33;;;44.93;;
15878;SDS011;61999;51.514;14.614;2022-12-04T07:49:02;82.57;;;43.77;;
15878;SDS011;61999;51.514;14.614;2022-12-04T07:51:30;79.33;;;40.87;;
15878;SDS011;61999;51.514;14.614;2022-12-04T07:53:58;76.87;;;40.93;;
15878;SDS011;61999;51.514;14.614;2022-12-04T07:56:30;77.13;;;39.37;;
15878;SDS011;61999;51.514;14.614;2022-12-04T07:58:58;72.70;;;39.40;;
15878;SDS011;61999;51.514;14.614;2022-12-04T08:01:27;109.63;;;55.93;;
15878;SDS011;61999;51.514;14.614;2022-12-04T08:03:56;115.73;;;59.57;;
15878;SDS011;61999;51.514;14.614;2022-12-04T08:06:27;111.17;;;61.67;;
15878;SDS011;61999;51.514;14.614;2022-12-04T08:09:27;99.37;;;55.20;;
15878;SDS011;61999;51.514;14.614;2022-12-04T08:11:56;84.10;;;47.57;;
15878;SDS011;61999;51.514;14.614;2022-12-04T08:14:25;77.97;;;42.10;;
15878;SDS011;61999;51.514;14.614;2022-12-04T08:16:53;70.73;;;37.97;;
15878;SDS011;61999;51.514;14.614;2022-12-04T08:19:21;78.43;;;44.13;;
15878;SDS011;61999;51.514;14.614;2022-12-04T08:21:49;75.93;;;41.67;;
15878;SDS011;61999;51.514;14.614;2022-12-04T08:24:25;80.60;;;46.93;;
15878;SDS011;61999;51.514;14.614;2022-12-04T08:26:53;84.17;;;43.33;;
15878;SDS011;61999;51.514;14.614;2022-12-04T08:29:22;74.77;;;39.53;;
15878;SDS011;61999;51.514;14.614;2022-12-04T08:31:50;75.53;;;40.53;;
15878;SDS011;61999;51.514;14.614;2022-12-04T08:34:18;74.97;;;39.83;;
15878;SDS011;61999;51.514;14.614;2022-12-04T08:36:47;71.07;;;37.97;;
15878;SDS011;61999;51.514;14.614;2022-12-04T08:39:15;89.17;;;47.03;;
15878;SDS011;61999;51.514;14.614;2022-12-04T08:41:43;82.50;;;45.47;;
15878;SDS011;61999;51.514;14.614;2022-12-04T08:44:11;75.43;;;45.20;;
15878;SDS011;61999;51.514;14.614;2022-12-04T08:46:46;71.77;;;43.27;;
15878;SDS011;61999;51.514;14.614;2022-12-04T08:49:14;83.07;;;50.93;;
15878;SDS011;61999;51.514;14.614;2022-12-04T08:51:42;83.00;;;46.23;;
15878;SDS011;61999;51.514;14.614;2022-12-04T08:54:11;75.93;;;42.27;;
15878;SDS011;61999;51.514;14.614;2022-12-04T08:56:39;68.07;;;40.13;;
15878;SDS011;61999;51.514;14.614;2022-12-04T08:59:09;68.50;;;38.97;;
15878;SDS011;61999;51.514;14.614;2022-12-04T09:01:39;72.73;;;40.30;;
15878;SDS011;61999;51.514;14.614;2022-12-04T09:04:09;75.07;;;38.87;;
15878;SDS011;61999;51.514;14.614;2022-12-04T09:06:37;78.87;;;41.00;;
15878;SDS011;61999;51.514;14.614;2022-12-04T09:09:05;77.90;;;41.40;;
15878;SDS011;61999;51.514;14.614;2022-12-04T09:11:33;69.23;;;38.93;;
15878;SDS011;61999;51.514;14.614;2022-12-04T09:14:01;71.30;;;39.20;;
15878;SDS011;61999;51.514;14.614;2022-12-04T09:16:30;76.00;;;39.73;;
15878;SDS011;61999;51.514;14.614;2022-12-04T09:18:58;77.80;;;40.43;;
15878;SDS011;61999;51.514;14.614;2022-12-04T09:21:28;70.87;;;39.60;;
15878;SDS011;61999;51.514;14.614;2022-12-04T09:23:57;71.80;;;38.50;;
15878;SDS011;61999;51.514;14.614;2022-12-04T09:26:26;69.90;;;38.10;;
15878;SDS011;61999;51.514;14.614;2022-12-04T09:28:57;67.63;;;37.73;;
15878;SDS011;61999;51.514;14.614;2022-12-04T09:31:28;70.73;;;40.37;;
15878;SDS011;61999;51.514;14.614;2022-12-04T09:33:57;75.50;;;43.10;;
15878;SDS011;61999;51.514;14.614;2022-12-04T09:36:25;87.13;;;45.93;;
15878;SDS011;61999;51.514;14.614;2022-12-04T09:38:56;75.57;;;45.07;;
15878;SDS011;61999;51.514;14.614;2022-12-04T09:41:36;75.83;;;42.40;;
15878;SDS011;61999;51.514;14.614;2022-12-04T09:44:42;71.33;;;38.57;;
15878;SDS011;61999;51.514;14.614;2022-12-04T09:47:18;63.77;;;36.60;;
15878;SDS011;61999;51.514;14.614;2022-12-04T09:49:53;66.90;;;39.63;;
15878;SDS011;61999;51.514;14.614;2022-12-04T09:52:32;69.90;;;37.90;;
15878;SDS011;61999;51.514;14.614;2022-12-04T09:55:12;78.33;;;39.40;;
15878;SDS011;61999;51.514;14.614;2022-12-04T09:57:47;75.70;;;37.23;;
15878;SDS011;61999;51.514;14.614;2022-12-04T10:00:21;60.17;;;34.57;;
15878;SDS011;61999;51.514;14.614;2022-12-04T10:02:50;54.77;;;33.80;;
15878;SDS011;61999;51.514;14.614;2022-12-04T10:05:31;60.77;;;33.50;;
15878;SDS011;61999;51.514;14.614;2022-12-04T10:08:14;67.97;;;38.03;;
15878;SDS011;61999;51.514;14.614;2022-12-04T10:10:49;65.10;;;37.37;;
15878;SDS011;61999;51.514;14.614;2022-12-04T10:16:52;67.80;;;38.57;;
15878;SDS011;61999;51.514;14.614;2022-12-04T10:19:46;59.03;;;33.87;;
15878;SDS011;61999;51.514;14.614;2022-12-04T10:22:22;69.00;;;37.40;;
15878;SDS011;61999;51.514;14.614;2022-12-04T10:25:07;68.27;;;38.13;;
15878;SDS011;61999;51.514;14.614;2022-12-04T10:27:43;59.50;;;34.73;;
15878;SDS011;61999;51.514;14.614;2022-12-04T10:30:20;74.40;;;41.43;;
15878;SDS011;61999;51.514;14.614;2022-12-04T10:32:56;82.37;;;46.33;;
15878;SDS011;61999;51.514;14.614;2022-12-04T10:35:43;68.13;;;41.03;;
15878;SDS011;61999;51.514;14.614;2022-12-04T10:38:21;60.27;;;34.37;;
15878;SDS011;61999;51.514;14.614;2022-12-04T10:41:03;59.70;;;35.87;;
15878;SDS011;61999;51.514;14.614;2022-12-04T10:43:42;61.63;;;34.27;;
15878;SDS011;61999;51.514;14.614;2022-12-04T10:46:13;65.47;;;37.87;;
15878;SDS011;61999;51.514;14.614;2022-12-04T10:48:48;64.90;;;37.13;;
15878;SDS011;61999;51.514;14.614;2022-12-04T10:51:20;62.53;;;38.63;;
15878;SDS011;61999;51.514;14.614;2022-12-04T10:53:49;63.27;;;38.00;;
15878;SDS011;61999;51.514;14.614;2022-12-04T10:56:20;69.37;;;40.20;;
15878;SDS011;61999;51.514;14.614;2022-12-04T10:58:54;63.97;;;36.43;;
15878;SDS011;61999;51.514;14.614;2022-12-04T11:01:25;67.17;;;38.57;;
15878;SDS011;61999;51.514;14.614;2022-12-04T11:03:58;58.13;;;36.40;;
15878;SDS011;61999;51.514;14.614;2022-12-04T11:06:28;58.10;;;34.20;;
15878;SDS011;61999;51.514;14.614;2022-12-04T11:08:58;63.20;;;36.37;;
15878;SDS011;61999;51.514;14.614;2022-12-04T11:11:31;61.73;;;38.33;;
15878;SDS011;61999;51.514;14.614;2022-12-04T11:14:11;63.70;;;38.60;;
15878;SDS011;61999;51.514;14.614;2022-12-04T11:16:43;57.20;;;36.13;;
15878;SDS011;61999;51.514;14.614;2022-12-04T11:19:19;60.90;;;37.03;;
15878;SDS011;61999;51.514;14.614;2022-12-04T11:21:51;64.23;;;35.87;;
15878;SDS011;61999;51.514;14.614;2022-12-04T11:24:23;62.00;;;35.33;;
15878;SDS011;61999;51.514;14.614;2022-12-04T11:26:57;67.30;;;37.87;;
15878;SDS011;61999;51.514;14.614;2022-12-04T11:29:28;62.83;;;37.27;;
15878;SDS011;61999;51.514;14.614;2022-12-04T11:32:02;65.70;;;38.23;;
15878;SDS011;61999;51.514;14.614;2022-12-04T11:34:34;58.90;;;37.93;;
15878;SDS011;61999;51.514;14.614;2022-12-04T11:37:14;60.47;;;36.77;;
15878;SDS011;61999;51.514;14.614;2022-12-04T11:39:49;62.07;;;36.13;;
15878;SDS011;61999;51.514;14.614;2022-12-04T11:42:22;56.37;;;33.63;;
15878;SDS011;61999;51.514;14.614;2022-12-04T11:44:53;71.10;;;40.37;;
15878;SDS011;61999;51.514;14.614;2022-12-04T11:47:25;114.07;;;66.27;;
15878;SDS011;61999;51.514;14.614;2022-12-04T11:49:58;85.63;;;51.93;;
15878;SDS011;61999;51.514;14.614;2022-12-04T11:55:38;73.50;;;43.33;;
15878;SDS011;61999;51.514;14.614;2022-12-04T12:01:41;69.07;;;40.50;;
15878;SDS011;61999;51.514;14.614;2022-12-04T12:04:25;59.17;;;36.93;;
15878;SDS011;61999;51.514;14.614;2022-12-04T12:07:23;65.27;;;40.30;;
15878;SDS011;61999;51.514;14.614;2022-12-04T12:10:08;63.27;;;37.40;;
15878;SDS011;61999;51.514;14.614;2022-12-04T12:12:47;60.03;;;38.20;;
15878;SDS011;61999;51.514;14.614;2022-12-04T12:15:34;66.77;;;39.20;;
15878;SDS011;61999;51.514;14.614;2022-12-04T12:18:17;60.20;;;37.43;;
15878;SDS011;61999;51.514;14.614;2022-12-04T12:21:14;64.40;;;37.20;;
15878;SDS011;61999;51.514;14.614;2022-12-04T12:23:59;62.77;;;37.37;;
15878;SDS011;61999;51.514;14.614;2022-12-04T12:26:44;67.27;;;39.03;;
15878;SDS011;61999;51.514;14.614;2022-12-04T12:29:32;68.50;;;40.60;;
15878;SDS011;61999;51.514;14.614;2022-12-04T12:32:27;69.27;;;45.20;;
15878;SDS011;61999;51.514;14.614;2022-12-04T12:35:26;76.27;;;47.80;;
15878;SDS011;61999;51.514;14.614;2022-12-04T12:38:01;65.50;;;42.00;;
15878;SDS011;61999;51.514;14.614;2022-12-04T12:40:34;67.60;;;40.83;;
15878;SDS011;61999;51.514;14.614;2022-12-04T12:43:10;56.83;;;35.70;;
15878;SDS011;61999;51.514;14.614;2022-12-04T12:45:48;63.57;;;39.53;;
15878;SDS011;61999;51.514;14.614;2022-12-04T12:48:26;70.77;;;42.30;;
15878;SDS011;61999;51.514;14.614;2022-12-04T12:51:04;67.63;;;38.40;;
15878;SDS011;61999;51.514;14.614;2022-12-04T12:53:54;70.27;;;42.00;;
15878;SDS011;61999;51.514;14.614;2022-12-04T12:56:36;56.57;;;35.23;;
15878;SDS011;61999;51.514;14.614;2022-12-04T12:59:15;60.53;;;36.90;;
15878;SDS011;61999;51.514;14.614;2022-12-04T13:01:50;59.17;;;36.27;;
15878;SDS011;61999;51.514;14.614;2022-12-04T13:04:29;54.20;;;33.53;;
15878;SDS011;61999;51.514;14.614;2022-12-04T13:07:09;53.50;;;34.07;;
15878;SDS011;61999;51.514;14.614;2022-12-04T13:09:54;56.50;;;33.83;;
15878;SDS011;61999;51.514;14.614;2022-12-04T13:12:32;48.77;;;31.47;;
15878;SDS011;61999;51.514;14.614;2022-12-04T13:15:12;49.77;;;31.17;;
15878;SDS011;61999;51.514;14.614;2022-12-04T13:17:43;52.07;;;32.87;;
15878;SDS011;61999;51.514;14.614;2022-12-04T13:20:19;55.70;;;33.20;;
15878;SDS011;61999;51.514;14.614;2022-12-04T13:22:56;56.40;;;35.90;;
15878;SDS011;61999;51.514;14.614;2022-12-04T13:25:47;61.10;;;35.07;;
15878;SDS011;61999;51.514;14.614;2022-12-04T13:28:30;53.63;;;34.07;;
15878;SDS011;61999;51.514;14.614;2022-12-04T13:31:21;54.27;;;36.80;;
15878;SDS011;61999;51.514;14.614;2022-12-04T13:34:09;61.77;;;37.93;;
15878;SDS011;61999;51.514;14.614;2022-12-04T13:37:03;54.83;;;34.93;;
15878;SDS011;61999;51.514;14.614;2022-12-04T13:40:08;58.40;;;36.43;;
15878;SDS011;61999;51.514;14.614;2022-12-04T13:45:57;61.73;;;37.00;;
15878;SDS011;61999;51.514;14.614;2022-12-04T13:48:30;58.87;;;35.73;;
15878;SDS011;61999;51.514;14.614;2022-12-04T13:51:06;54.70;;;35.47;;
15878;SDS011;61999;51.514;14.614;2022-12-04T13:54:02;52.80;;;32.33;;
15878;SDS011;61999;51.514;14.614;2022-12-04T13:57:09;60.90;;;35.57;;
15878;SDS011;61999;51.514;14.614;2022-12-04T13:59:48;57.57;;;34.63;;
15878;SDS011;61999;51.514;14.614;2022-12-04T14:02:31;62.93;;;37.47;;
15878;SDS011;61999;51.514;14.614;2022-12-04T14:05:03;61.73;;;37.07;;
15878;SDS011;61999;51.514;14.614;2022-12-04T14:07:34;67.93;;;41.50;;
15878;SDS011;61999;51.514;14.614;2022-12-04T14:10:07;63.30;;;38.03;;
15878;SDS011;61999;51.514;14.614;2022-12-04T14:12:57;58.17;;;36.60;;
15878;SDS011;61999;51.514;14.614;2022-12-04T14:15:30;67.83;;;40.30;;
15878;SDS011;61999;51.514;14.614;2022-12-04T14:18:02;66.47;;;40.83;;
15878;SDS011;61999;51.514;14.614;2022-12-04T14:20:42;64.30;;;38.27;;
15878;SDS011;61999;51.514;14.614;2022-12-04T14:23:21;62.57;;;39.80;;
15878;SDS011;61999;51.514;14.614;2022-12-04T14:26:00;57.80;;;36.83;;
15878;SDS011;61999;51.514;14.614;2022-12-04T14:28:37;57.90;;;37.13;;
15878;SDS011;61999;51.514;14.614;2022-12-04T14:31:16;75.63;;;44.43;;
15878;SDS011;61999;51.514;14.614;2022-12-04T14:33:57;75.17;;;45.60;;
15878;SDS011;61999;51.514;14.614;2022-12-04T14:36:32;69.40;;;43.63;;
15878;SDS011;61999;51.514;14.614;2022-12-04T14:39:10;71.00;;;43.80;;
15878;SDS011;61999;51.514;14.614;2022-12-04T14:41:49;71.27;;;44.90;;
15878;SDS011;61999;51.514;14.614;2022-12-04T14:44:22;87.37;;;47.07;;
15878;SDS011;61999;51.514;14.614;2022-12-04T14:46:56;77.37;;;43.33;;
15878;SDS011;61999;51.514;14.614;2022-12-04T14:49:39;66.97;;;42.43;;
15878;SDS011;61999;51.514;14.614;2022-12-04T14:52:23;76.40;;;46.40;;
15878;SDS011;61999;51.514;14.614;2022-12-04T14:55:01;80.97;;;48.37;;
15878;SDS011;61999;51.514;14.614;2022-12-04T14:57:45;71.23;;;44.20;;
15878;SDS011;61999;51.514;14.614;2022-12-04T15:00:22;61.60;;;39.23;;
15878;SDS011;61999;51.514;14.614;2022-12-04T15:02:52;63.67;;;40.13;;
15878;SDS011;61999;51.514;14.614;2022-12-04T15:05:26;68.40;;;41.70;;
15878;SDS011;61999;51.514;14.614;2022-12-04T15:07:58;66.93;;;41.23;;
15878;SDS011;61999;51.514;14.614;2022-12-04T15:10:32;64.60;;;39.70;;
15878;SDS011;61999;51.514;14.614;2022-12-04T15:13:25;59.30;;;38.90;;
15878;SDS011;61999;51.514;14.614;2022-12-04T15:15:54;58.60;;;38.00;;
15878;SDS011;61999;51.514;14.614;2022-12-04T15:18:22;60.83;;;36.87;;
15878;SDS011;61999;51.514;14.614;2022-12-04T15:20:54;62.87;;;37.17;;
15878;SDS011;61999;51.514;14.614;2022-12-04T15:23:27;61.13;;;39.27;;
15878;SDS011;61999;51.514;14.614;2022-12-04T15:26:03;66.23;;;41.87;;
15878;SDS011;61999;51.514;14.614;2022-12-04T15:28:39;62.70;;;39.43;;
15878;SDS011;61999;51.514;14.614;2022-12-04T15:31:15;62.57;;;41.27;;
15878;SDS011;61999;51.514;14.614;2022-12-04T15:33:48;60.27;;;38.90;;
15878;SDS011;61999;51.514;14.614;2022-12-04T15:36:24;63.30;;;38.63;;